• Join FlightAware (Why Join?)
  • Login
  • US Flag 
11:31PM EDT


 

Airport Tracker/Info


-or-


 

Live Flight TrackerFlight Track Log ✈ SKW2986 ✈ 23-Mar-2012 ✈ KPHX - KGJT

Flight Track Log - Related Links

Times and Time Zones

All times are in EDT time to prevent confusion due to time zone crossing. See the SKW2986 flight status page for this flight to view local times or setup timezone preferences in your user account.

Time Position Orientation Groundspeed Altitude Reporting Facility
EDT Latitude Longitude Course Direction KTS MPH feet Rate Location/Type
08:17PM 33.4333 -112.0333 287° West 161 185 1,800  Level Phoenix TRACON
08:19PM 33.4786 -112.2153 27° Northeast 234 269 6,600 2,040 Climbing Albuquerque Center
08:20PM 33.5536 -112.1697 42° Northeast 195 224 9,100 2,040 Climbing Albuquerque Center
08:21PM 33.6211 -112.0964 42° Northeast 228 262 10,700 1,620 Climbing Albuquerque Center
08:22PM 33.6931 -112.0181 40° Northeast 301 346 12,400 1,560 Climbing Albuquerque Center
08:23PM 33.7733 -111.9378 40° Northeast 348 400 13,900 1,320 Climbing Albuquerque Center
08:24PM 33.8536 -111.8569 42° Northeast 368 423 15,100 1,200 Climbing Albuquerque Center
08:25PM 33.9383 -111.7664 38° Northeast 379 436 16,400 1,140 Climbing Albuquerque Center
08:26PM 34.0250 -111.6833 23° Northeast 385 443 17,400 1,020 Climbing Albuquerque Center
08:27PM 34.1311 -111.6286 25° Northeast 398 458 18,500 960 Climbing Albuquerque Center
08:28PM 34.2247 -111.5758 23° Northeast 409 471 19,400 780 Climbing Albuquerque Center
08:29PM 34.3353 -111.5186 24° Northeast 416 479 20,100 780 Climbing Albuquerque Center
08:30PM 34.4458 -111.4586 25° Northeast 427 491 21,000 900 Climbing Albuquerque Center
08:31PM 34.5586 -111.3936 22° Northeast 432 497 22,000 900 Climbing Albuquerque Center
08:32PM 34.6775 -111.3364 25° Northeast 442 509 22,800 840 Climbing Albuquerque Center
08:33PM 34.7944 -111.2714 23° Northeast 447 514 23,700 780 Climbing Albuquerque Center
08:34PM 34.9133 -111.2086 24° Northeast 447 514 24,400 780 Climbing Albuquerque Center
08:35PM 35.0344 -111.1433 27° Northeast 453 521 25,300 840 Climbing Albuquerque Center
08:36PM 35.1664 -111.0606 25° Northeast 467 537 26,100 660 Climbing Albuquerque Center
08:37PM 35.2853 -110.9922 23° Northeast 472 543 26,700 540 Climbing Albuquerque Center
08:39PM 35.4764 -110.8914 24° Northeast 464 534 27,600 480 Climbing Denver Center
08:40PM 35.6000 -110.8222 25° Northeast 472 543 28,100 540 Climbing Denver Center
08:41PM 35.7236 -110.7503 24° Northeast 485 558 28,700 420 Climbing Denver Center
08:42PM 35.8639 -110.6739 25° Northeast 485 558 29,000 120 Climbing Denver Center
08:43PM 35.9894 -110.6014 24° Northeast 490 564 29,000  Level Denver Center
08:44PM 36.1211 -110.5292 25° Northeast 497 572 29,000  Level Denver Center
08:45PM 36.2531 -110.4514 24° Northeast 504 580 29,000  Level Denver Center
08:46PM 36.3828 -110.3786 24° Northeast 509 586 29,000  Level Denver Center
08:47PM 36.5144 -110.3056 25° Northeast 509 586 29,000  Level Denver Center
08:48PM 36.6400 -110.2319 24° Northeast 509 586 29,000  Level Denver Center
08:49PM 36.7589 -110.1653 23° Northeast 509 586 29,000  Level Denver Center
08:50PM 36.9031 -110.0897 26° Northeast 509 586 29,000  Level Denver Center
08:51PM 37.0197 -110.0175 24° Northeast 509 586 29,000  Level Denver Center
08:52PM 37.1619 -109.9383 25° Northeast 509 586 29,000  Level Denver Center
08:53PM 37.2936 -109.8614 25° Northeast 509 586 29,000  Level Denver Center
08:54PM 37.4250 -109.7839 25° Northeast 509 586 29,000  Level Denver Center
08:55PM 37.5394 -109.7158 25° Northeast 510 587 29,000  Level Denver Center
08:56PM 37.6817 -109.6331 25° Northeast 510 587 29,000 -120 Level Denver Center
08:57PM 37.8086 -109.5572 26° Northeast 510 587 28,800 -840 Descending Denver Center
08:58PM 37.9339 -109.4811 28° Northeast 510 587 27,400 -1,020 Descending Denver Center
08:59PM 38.0569 -109.3992 25° Northeast 505 581 26,800 -1,080 Descending Denver Center
09:00PM 38.1861 -109.3228 26° Northeast 498 573 25,300 -1,500 Descending Denver Center
09:01PM 38.2961 -109.2558 25° Northeast 493 567 23,900 -1,500 Descending Denver Center
09:02PM 38.4186 -109.1836 25° Northeast 482 555 22,400 -1,560 Descending Denver Center
09:03PM 38.5497 -109.1039 26° Northeast 471 542 20,800 -1,560 Descending Denver Center
09:04PM 38.6642 -109.0336 42° Northeast 465 535 19,300 -1,560 Descending Denver Center
09:05PM 38.7433 -108.9408 48° Northeast 435 501 17,700 -1,980 Descending Denver Center
09:06PM 38.8206 -108.8289 48° Northeast 387 445 15,400 -2,220 Descending Denver Center
09:07PM 38.8872 -108.7350 56° Northeast 365 420 13,300 -1,800 Descending Denver Center
09:08PM 38.9369 -108.6406 68° East 336 387 11,800 -1,500 Descending Denver Center
09:09PM 38.9614 -108.5639 62° Northeast 276 318 10,300 -1,740 Descending Denver Center
09:10PM 38.9942 -108.4847 35° Northeast 233 268 8,400 -1,440 Descending Denver Center
09:11PM 39.0344 -108.4486 356° North 207 238 7,500 -1,200 Descending Denver Center
09:12PM 39.0803 -108.4525 308° West 163 188 6,100 -1,200 Descending Denver Center
09:13PM 39.1064 -108.4961 309° West 144 166 5,200 -660 Descending Denver Center
09:14PM 39.1289 -108.5314 309° West 150 173 4,800 -420 Descending Denver Center